S/y Fort Mustang — DF6552 — position and weather

sailwx.info

Track history (hours):
 
Tides and Currents Weather Stations Pressure Air Temp Water Temp Dewpoint Dewpoint Depression Visibility Wind Speed Wind Dir Waves Ship Positions

S/y Fort Mustang

Last reported at 2018-Jun-19 19:43 UTC. Time now 2018-Jun-20 05:46 UTC.
Position N 51°08' E 002°44'.

Length 12 m.

Type: Sailing vessel. MMSI: 211519840.

Date/timePositionNaut miles runAvg speedWind from/ knotsBaromVisibWave heightAir tempDewpointWater temp
2018-Jun-19 19:43N 51°08' E 002°44'0 0.0
2018-Jun-19 19:28N 51°08' E 002°44'0 0.0
2018-Jun-19 18:58N 51°08' E 002°44'0 0.0
2018-Jun-19 18:28N 51°08' E 002°44'0 0.0
2018-Jun-19 17:58N 51°08' E 002°44'0 0.0
2018-Jun-19 17:28N 51°08' E 002°44'0 0.0
2018-Jun-19 16:58N 51°08' E 002°44'0 0.0
2018-Jun-19 16:28N 51°08' E 002°44'0 0.0
2018-Jun-19 15:58N 51°08' E 002°44'0 0.0
2018-Jun-19 15:25N 51°08' E 002°44'0 0.0
2018-Jun-19 14:58N 51°08' E 002°44'0 0.0
2018-Jun-19 14:28N 51°08' E 002°44'0 0.0
2018-Jun-19 13:58N 51°08' E 002°44'0 0.0
2018-Jun-19 13:28N 51°08' E 002°44'0 0.0
2018-Jun-19 12:58N 51°08' E 002°44'0 0.0
2018-Jun-19 12:28N 51°08' E 002°44'0 0.0
2018-Jun-19 11:58N 51°08' E 002°44'0 0.0
2018-Jun-19 11:28N 51°08' E 002°44'0 0.1
2018-Jun-19 10:59N 51°08' E 002°44'0 0.0
2018-Jun-19 10:30N 51°08' E 002°44'2 3.8
2018-Jun-19 10:00N 51°10' E 002°42'3 5.3
2018-Jun-19 09:30N 51°09' E 002°38'3 5.4
2018-Jun-19 09:00N 51°08' E 002°34'2 4.7
2018-Jun-19 08:30N 51°07' E 002°31'3 5.5
2018-Jun-19 08:00N 51°05' E 002°28'3 5.6
2018-Jun-19 07:27N 51°04' E 002°23'1 2.6
2018-Jun-19 06:59N 51°03' E 002°22'0 0.0
2018-Jun-19 06:29N 51°03' E 002°22'0 0.0
2018-Jun-19 05:59N 51°03' E 002°22'0 0.0
2018-Jun-19 05:29N 51°03' E 002°22'0 0.0
2018-Jun-19 04:47N 51°03' E 002°22'0 0.0
2018-Jun-19 04:29N 51°03' E 002°22'0 0.0
2018-Jun-19 03:59N 51°03' E 002°22'0 0.0
2018-Jun-19 03:26N 51°03' E 002°22'0 0.0
2018-Jun-19 02:59N 51°03' E 002°22'0 0.0
2018-Jun-19 02:29N 51°03' E 002°22'0 0.0
2018-Jun-19 01:47N 51°03' E 002°22'0 0.0
2018-Jun-19 01:29N 51°03' E 002°22'0 0.0
2018-Jun-19 00:59N 51°03' E 002°22'0 0.0
2018-Jun-19 00:14N 51°03' E 002°22'0 0.0
2018-Jun-18 23:17N 51°03' E 002°22'0 0.0
2018-Jun-18 21:44N 51°03' E 002°22'0 0.0
2018-Jun-18 21:29N 51°03' E 002°22'0 0.0
2018-Jun-18 20:50N 51°03' E 002°22'0 0.0
2018-Jun-18 20:20N 51°03' E 002°22'0 0.0
2018-Jun-18 19:59N 51°03' E 002°22'0 0.0
2018-Jun-18 19:26N 51°03' E 002°22'0 0.0
2018-Jun-18 18:59N 51°03' E 002°22'0 0.0
2018-Jun-18 18:26N 51°03' E 002°22'0 0.0
2018-Jun-18 17:59N 51°03' E 002°22'0 0.0
2018-Jun-18 17:29N 51°03' E 002°22'0 0.0
2018-Jun-18 16:08N 51°03' E 002°22'0 0.0
2018-Jun-18 15:47N 51°03' E 002°22'0 0.0
2018-Jun-18 15:17N 51°03' E 002°22'0 0.0
2018-Jun-18 14:26N 51°03' E 002°22'0 0.0
2018-Jun-18 13:50N 51°03' E 002°22'0 0.0
2018-Jun-18 13:29N 51°03' E 002°22'0 0.0
2018-Jun-18 12:53N 51°03' E 002°22'0 0.0
2018-Jun-18 12:23N 51°03' E 002°22'0 0.0
2018-Jun-18 11:23N 51°03' E 002°22'0 0.0
2018-Jun-18 10:59N 51°03' E 002°22'0 0.0
2018-Jun-18 10:26N 51°03' E 002°22'0 0.0
2018-Jun-18 09:59N 51°03' E 002°22'0 0.0
2018-Jun-18 09:11N 51°03' E 002°22'0 0.0
2018-Jun-18 08:56N 51°03' E 002°22'0 0.0
2018-Jun-18 08:29N 51°03' E 002°22'0 0.0
2018-Jun-17 19:01N 51°03' E 002°22'0 0.0
2018-Jun-17 18:55N 51°03' E 002°22'0 0.0
2018-Jun-17 18:28N 51°03' E 002°22'0 0.0
2018-Jun-17 17:58N 51°03' E 002°22'0 0.0
2018-Jun-17 17:28N 51°03' E 002°22'0 0.0
2018-Jun-17 16:58N 51°03' E 002°22'0 0.0
2018-Jun-17 16:19N 51°03' E 002°22'0 0.0
2018-Jun-17 15:58N 51°03' E 002°22'0 0.0
2018-Jun-17 15:28N 51°03' E 002°22'0 0.0
2018-Jun-17 14:07N 51°03' E 002°22'0 0.0
2018-Jun-17 13:46N 51°03' E 002°22'0 0.0
2018-Jun-17 13:28N 51°03' E 002°22'0 0.0
2018-Jun-17 12:58N 51°03' E 002°22'0 0.0
2018-Jun-17 12:25N 51°03' E 002°22'0 0.0
2018-Jun-17 11:58N 51°03' E 002°22'0 0.0
2018-Jun-17 11:28N 51°03' E 002°22'0 0.0
2018-Jun-17 10:55N 51°03' E 002°22'0 0.0
2018-Jun-17 10:28N 51°03' E 002°22'0 0.0
2018-Jun-17 09:58N 51°03' E 002°22'0 0.0
2018-Jun-17 09:28N 51°03' E 002°22'0 0.0
2018-Jun-16 19:05N 51°03' E 002°22'0 0.0
2018-Jun-16 18:53N 51°03' E 002°22'0 0.0
2018-Jun-16 18:17N 51°03' E 002°22'0 0.0
2018-Jun-16 17:56N 51°03' E 002°22'0 0.0
2018-Jun-16 17:22N 51°03' E 002°22'0 0.0
2018-Jun-16 16:58N 51°03' E 002°22'0 0.0
2018-Jun-16 16:28N 51°03' E 002°22'0 0.0
2018-Jun-16 15:58N 51°03' E 002°22'0 0.0
2018-Jun-16 15:22N 51°03' E 002°22'0 0.0
2018-Jun-16 14:58N 51°03' E 002°22'0 0.0
2018-Jun-16 14:28N 51°03' E 002°22'0 0.2
2018-Jun-16 13:59N 51°03' E 002°22'4 7.0
2018-Jun-16 13:26N 51°04' E 002°16'4 9.2
2018-Jun-16 13:00N 51°03' E 002°10'5 8.5
2018-Jun-16 12:23N 51°02' E 002°02'410.0
2018-Jun-16 12:00N 51°01' E 001°56'5 9.3
2018-Jun-16 11:30N 50°60' E 001°49'  
2018-Jun-13 05:59N 49°47' E 000°22'1 2.1
2018-Jun-13 05:28N 49°46' E 000°22'0 0.0
2018-Jun-12 18:44N 49°46' E 000°22'0 0.0
2018-Jun-12 18:29N 49°46' E 000°22'0 0.0
2018-Jun-12 17:59N 49°46' E 000°22'0 0.0
2018-Jun-12 17:26N 49°46' E 000°22'0 0.0
2018-Jun-12 16:59N 49°46' E 000°22'0 0.0
2018-Jun-12 16:29N 49°46' E 000°22'0 0.0
2018-Jun-12 15:59N 49°46' E 000°22'0 0.0
2018-Jun-12 15:29N 49°46' E 000°22'0 0.0
2018-Jun-12 14:56N 49°46' E 000°22'0 0.0
2018-Jun-12 14:29N 49°46' E 000°22'0 0.0
2018-Jun-12 13:59N 49°46' E 000°22'0 0.0
2018-Jun-12 13:29N 49°46' E 000°22'0 0.0
2018-Jun-12 12:59N 49°46' E 000°22'0 0.0
2018-Jun-12 12:29N 49°46' E 000°22'0 0.0
2018-Jun-12 11:59N 49°46' E 000°22'0 0.0
2018-Jun-12 11:29N 49°46' E 000°22'0 0.0
2018-Jun-12 10:53N 49°46' E 000°22'0 0.0
2018-Jun-11 18:47N 49°46' E 000°22'0 0.0
2018-Jun-11 18:29N 49°46' E 000°22'0 0.0
2018-Jun-11 17:59N 49°46' E 000°22'0 0.0
2018-Jun-11 17:29N 49°46' E 000°22'0 0.0
2018-Jun-11 16:59N 49°46' E 000°22'  
Track history (hours):
 
Tides and Currents Weather Stations Pressure Air Temp Water Temp Dewpoint Dewpoint Depression Visibility Wind Speed Wind Dir Waves Ship Positions

S/y Fort Mustang

Last reported at 2018-Jun-19 19:43 UTC. Time now 2018-Jun-20 05:46 UTC.
Position N 51°08' E 002°44'.

Length 12 m.

Type: Sailing vessel. MMSI: 211519840.

Date/timePositionNaut miles runAvg speedWind from/ knotsBaromVisibWave heightAir tempDewpointWater temp
2018-Jun-19 19:43N 51°08' E 002°44'0 0.0
2018-Jun-19 19:28N 51°08' E 002°44'0 0.0
2018-Jun-19 18:58N 51°08' E 002°44'0 0.0
2018-Jun-19 18:28N 51°08' E 002°44'0 0.0
2018-Jun-19 17:58N 51°08' E 002°44'0 0.0
2018-Jun-19 17:28N 51°08' E 002°44'0 0.0
2018-Jun-19 16:58N 51°08' E 002°44'0 0.0
2018-Jun-19 16:28N 51°08' E 002°44'0 0.0
2018-Jun-19 15:58N 51°08' E 002°44'0 0.0
2018-Jun-19 15:25N 51°08' E 002°44'0 0.0
2018-Jun-19 14:58N 51°08' E 002°44'0 0.0
2018-Jun-19 14:28N 51°08' E 002°44'0 0.0
2018-Jun-19 13:58N 51°08' E 002°44'0 0.0
2018-Jun-19 13:28N 51°08' E 002°44'0 0.0
2018-Jun-19 12:58N 51°08' E 002°44'0 0.0
2018-Jun-19 12:28N 51°08' E 002°44'0 0.0
2018-Jun-19 11:58N 51°08' E 002°44'0 0.0
2018-Jun-19 11:28N 51°08' E 002°44'0 0.1
2018-Jun-19 10:59N 51°08' E 002°44'0 0.0
2018-Jun-19 10:30N 51°08' E 002°44'2 3.8
2018-Jun-19 10:00N 51°10' E 002°42'3 5.3
2018-Jun-19 09:30N 51°09' E 002°38'3 5.4
2018-Jun-19 09:00N 51°08' E 002°34'2 4.7
2018-Jun-19 08:30N 51°07' E 002°31'3 5.5
2018-Jun-19 08:00N 51°05' E 002°28'3 5.6
2018-Jun-19 07:27N 51°04' E 002°23'1 2.6
2018-Jun-19 06:59N 51°03' E 002°22'0 0.0
2018-Jun-19 06:29N 51°03' E 002°22'0 0.0
2018-Jun-19 05:59N 51°03' E 002°22'0 0.0
2018-Jun-19 05:29N 51°03' E 002°22'0 0.0
2018-Jun-19 04:47N 51°03' E 002°22'0 0.0
2018-Jun-19 04:29N 51°03' E 002°22'0 0.0
2018-Jun-19 03:59N 51°03' E 002°22'0 0.0
2018-Jun-19 03:26N 51°03' E 002°22'0 0.0
2018-Jun-19 02:59N 51°03' E 002°22'0 0.0
2018-Jun-19 02:29N 51°03' E 002°22'0 0.0
2018-Jun-19 01:47N 51°03' E 002°22'0 0.0
2018-Jun-19 01:29N 51°03' E 002°22'0 0.0
2018-Jun-19 00:59N 51°03' E 002°22'0 0.0
2018-Jun-19 00:14N 51°03' E 002°22'0 0.0
2018-Jun-18 23:17N 51°03' E 002°22'0 0.0
2018-Jun-18 21:44N 51°03' E 002°22'0 0.0
2018-Jun-18 21:29N 51°03' E 002°22'0 0.0
2018-Jun-18 20:50N 51°03' E 002°22'0 0.0
2018-Jun-18 20:20N 51°03' E 002°22'0 0.0
2018-Jun-18 19:59N 51°03' E 002°22'0 0.0
2018-Jun-18 19:26N 51°03' E 002°22'0 0.0
2018-Jun-18 18:59N 51°03' E 002°22'0 0.0
2018-Jun-18 18:26N 51°03' E 002°22'0 0.0
2018-Jun-18 17:59N 51°03' E 002°22'0 0.0
2018-Jun-18 17:29N 51°03' E 002°22'0 0.0
2018-Jun-18 16:08N 51°03' E 002°22'0 0.0
2018-Jun-18 15:47N 51°03' E 002°22'0 0.0
2018-Jun-18 15:17N 51°03' E 002°22'0 0.0
2018-Jun-18 14:26N 51°03' E 002°22'0 0.0
2018-Jun-18 13:50N 51°03' E 002°22'0 0.0
2018-Jun-18 13:29N 51°03' E 002°22'0 0.0
2018-Jun-18 12:53N 51°03' E 002°22'0 0.0
2018-Jun-18 12:23N 51°03' E 002°22'0 0.0
2018-Jun-18 11:23N 51°03' E 002°22'0 0.0
2018-Jun-18 10:59N 51°03' E 002°22'0 0.0
2018-Jun-18 10:26N 51°03' E 002°22'0 0.0
2018-Jun-18 09:59N 51°03' E 002°22'0 0.0
2018-Jun-18 09:11N 51°03' E 002°22'0 0.0
2018-Jun-18 08:56N 51°03' E 002°22'0 0.0
2018-Jun-18 08:29N 51°03' E 002°22'0 0.0
2018-Jun-17 19:01N 51°03' E 002°22'0 0.0
2018-Jun-17 18:55N 51°03' E 002°22'0 0.0
2018-Jun-17 18:28N 51°03' E 002°22'0 0.0
2018-Jun-17 17:58N 51°03' E 002°22'0 0.0
2018-Jun-17 17:28N 51°03' E 002°22'0 0.0
2018-Jun-17 16:58N 51°03' E 002°22'0 0.0
2018-Jun-17 16:19N 51°03' E 002°22'0 0.0
2018-Jun-17 15:58N 51°03' E 002°22'0 0.0
2018-Jun-17 15:28N 51°03' E 002°22'0 0.0
2018-Jun-17 14:07N 51°03' E 002°22'0 0.0
2018-Jun-17 13:46N 51°03' E 002°22'0 0.0
2018-Jun-17 13:28N 51°03' E 002°22'0 0.0
2018-Jun-17 12:58N 51°03' E 002°22'0 0.0
2018-Jun-17 12:25N 51°03' E 002°22'0 0.0
2018-Jun-17 11:58N 51°03' E 002°22'0 0.0
2018-Jun-17 11:28N 51°03' E 002°22'0 0.0
2018-Jun-17 10:55N 51°03' E 002°22'0 0.0
2018-Jun-17 10:28N 51°03' E 002°22'0 0.0
2018-Jun-17 09:58N 51°03' E 002°22'0 0.0
2018-Jun-17 09:28N 51°03' E 002°22'0 0.0
2018-Jun-16 19:05N 51°03' E 002°22'0 0.0
2018-Jun-16 18:53N 51°03' E 002°22'0 0.0
2018-Jun-16 18:17N 51°03' E 002°22'0 0.0
2018-Jun-16 17:56N 51°03' E 002°22'0 0.0
2018-Jun-16 17:22N 51°03' E 002°22'0 0.0
2018-Jun-16 16:58N 51°03' E 002°22'0 0.0
2018-Jun-16 16:28N 51°03' E 002°22'0 0.0
2018-Jun-16 15:58N 51°03' E 002°22'0 0.0
2018-Jun-16 15:22N 51°03' E 002°22'0 0.0
2018-Jun-16 14:58N 51°03' E 002°22'0 0.0
2018-Jun-16 14:28N 51°03' E 002°22'0 0.2
2018-Jun-16 13:59N 51°03' E 002°22'4 7.0
2018-Jun-16 13:26N 51°04' E 002°16'4 9.2
2018-Jun-16 13:00N 51°03' E 002°10'5 8.5
2018-Jun-16 12:23N 51°02' E 002°02'410.0
2018-Jun-16 12:00N 51°01' E 001°56'5 9.3
2018-Jun-16 11:30N 50°60' E 001°49'  
2018-Jun-13 05:59N 49°47' E 000°22'1 2.1
2018-Jun-13 05:28N 49°46' E 000°22'0 0.0
2018-Jun-12 18:44N 49°46' E 000°22'0 0.0
2018-Jun-12 18:29N 49°46' E 000°22'0 0.0
2018-Jun-12 17:59N 49°46' E 000°22'0 0.0
2018-Jun-12 17:26N 49°46' E 000°22'0 0.0
2018-Jun-12 16:59N 49°46' E 000°22'0 0.0
2018-Jun-12 16:29N 49°46' E 000°22'0 0.0
2018-Jun-12 15:59N 49°46' E 000°22'0 0.0
2018-Jun-12 15:29N 49°46' E 000°22'0 0.0
2018-Jun-12 14:56N 49°46' E 000°22'0 0.0
2018-Jun-12 14:29N 49°46' E 000°22'0 0.0
2018-Jun-12 13:59N 49°46' E 000°22'0 0.0
2018-Jun-12 13:29N 49°46' E 000°22'0 0.0
2018-Jun-12 12:59N 49°46' E 000°22'0 0.0
2018-Jun-12 12:29N 49°46' E 000°22'0 0.0
2018-Jun-12 11:59N 49°46' E 000°22'0 0.0
2018-Jun-12 11:29N 49°46' E 000°22'0 0.0
2018-Jun-12 10:53N 49°46' E 000°22'0 0.0
2018-Jun-11 18:47N 49°46' E 000°22'0 0.0
2018-Jun-11 18:29N 49°46' E 000°22'0 0.0
2018-Jun-11 17:59N 49°46' E 000°22'0 0.0
2018-Jun-11 17:29N 49°46' E 000°22'0 0.0
2018-Jun-11 16:59N 49°46' E 000°22'  

Dump ship's entire track history